Time;durP1;ratioP1;P1;durP2;ratioP2;P2;SDS_P1;SDS_P2;PMS_P1;PMS_P2;Temp;Humidity;BMP_temperature;BMP_pressure;BME280_temperature;BME280_humidity;BME280_pressure;Samples;Min_cycle;Max_cycle;Signal;HPM_P1;HPM_P2
2021/03/22 00:01:35;;;;;;;31.70;18.30;;;;;;;-1.79;83.55;100005.16;98052;1175;69187;-63
2021/03/22 00:03:40;;;;;;;24.20;12.60;;;;;;;-1.84;83.47;100009.98;98057;1173;85805;-64
2021/03/22 00:05:46;;;;;;;27.20;15.20;;;;;;;-1.87;83.31;100012.87;98067;1175;77035;-64
2021/03/22 00:07:53;;;;;;;24.80;12.75;;;;;;;-1.88;83.43;100016.50;98087;1175;91061;-63
2021/03/22 00:10:02;;;;;;;20.43;12.13;;;;;;;-1.89;83.43;100021.89;98066;1174;81275;-61
2021/03/22 00:12:13;;;;;;;24.00;13.85;;;;;;;-1.91;83.63;100027.32;98061;1175;69279;-63
2021/03/22 00:14:19;;;;;;;34.20;18.10;;;;;;;-1.93;83.97;100023.96;98087;1174;86208;-64
2021/03/22 00:16:24;;;;;;;38.30;18.50;;;;;;;-1.93;84.06;100026.61;98086;1175;76054;-63
2021/03/22 00:18:36;;;;;;;46.37;21.23;;;;;;;-1.95;83.44;100025.86;98097;1170;88763;-61
2021/03/22 00:20:42;;;;;;;34.50;15.90;;;;;;;-1.98;83.42;100031.39;98061;1174;81499;-62
2021/03/22 00:22:47;;;;;;;43.10;18.40;;;;;;;-2.02;83.36;100024.66;98062;1173;69129;-62
2021/03/22 00:24:52;;;;;;;34.35;15.00;;;;;;;-2.06;84.10;100031.14;98058;1171;86987;-62
2021/03/22 00:27:00;;;;;;;32.90;14.37;;;;;;;-2.05;83.51;100024.05;98053;1175;75311;-61
2021/03/22 00:29:06;;;;;;;28.30;13.90;;;;;;;-2.10;83.59;100024.42;98065;1175;89512;-63
2021/03/22 00:31:15;;;;;;;39.75;16.85;;;;;;;-2.12;83.30;100022.86;98056;1174;82637;-63
2021/03/22 00:33:25;;;;;;;35.43;15.73;;;;;;;-2.14;83.67;100027.43;98077;1175;69209;-63
2021/03/22 00:35:31;;;;;;;25.47;12.43;;;;;;;-2.13;83.27;100023.80;98066;1175;87349;-62
2021/03/22 00:37:36;;;;;;;25.00;12.40;;;;;;;-2.16;83.51;100032.83;98046;1175;76167;-62
2021/03/22 00:39:41;;;;;;;26.60;13.95;;;;;;;-2.13;83.35;100031.74;98070;1174;88537;-62
2021/03/22 00:41:49;;;;;;;27.60;13.70;;;;;;;-2.18;83.75;100040.05;98071;1174;82496;-63
2021/03/22 00:43:55;;;;;;;23.67;12.07;;;;;;;-2.23;83.89;100039.56;98092;1175;69122;-64
2021/03/22 00:46:02;;;;;;;34.93;18.63;;;;;;;-2.26;83.66;100037.14;98076;1175;87861;-65
2021/03/22 00:48:10;;;;;;;30.27;17.00;;;;;;;-2.25;83.50;100036.16;98091;1170;75807;-64
2021/03/22 00:50:24;;;;;;;25.33;15.17;;;;;;;-2.27;83.59;100032.80;98078;1175;89642;-63
2021/03/22 00:52:29;;;;;;;18.50;10.30;;;;;;;-2.33;84.00;100033.27;98062;1173;81988;-64
2021/03/22 00:54:34;;;;;;;19.95;11.00;;;;;;;-2.33;83.98;100040.38;98084;1173;68080;-66
2021/03/22 00:56:40;;;;;;;78.50;30.60;;;;;;;-2.33;83.99;100035.91;98080;1174;86127;-63
2021/03/22 00:58:45;;;;;;;51.10;21.20;;;;;;;-2.33;83.66;100037.73;98094;1170;75316;-65
2021/03/22 01:00:57;;;;;;;82.90;31.55;;;;;;;-2.33;83.52;100038.55;98089;1175;88907;-66
2021/03/22 01:03:09;;;;;;;59.40;22.75;;;;;;;-2.34;83.94;100031.59;98044;1175;82637;-62
2021/03/22 01:05:16;;;;;;;42.05;17.00;;;;;;;-2.33;83.56;100040.38;98067;1175;69353;-61
2021/03/22 01:07:22;;;;;;;36.30;14.50;;;;;;;-2.39;83.72;100041.69;98064;1174;85643;-64
2021/03/22 01:09:27;;;;;;;31.23;13.27;;;;;;;-2.37;83.71;100041.55;98110;1174;74489;-61
2021/03/22 01:11:33;;;;;;;35.65;13.95;;;;;;;-2.37;83.65;100037.12;98078;1169;89925;-62
2021/03/22 01:13:42;;;;;;;35.15;13.30;;;;;;;-2.35;83.78;100037.84;98074;1173;81838;-62
2021/03/22 01:15:48;;;;;;;34.40;13.33;;;;;;;-2.35;83.84;100039.63;98056;1175;68946;-62
2021/03/22 01:17:55;;;;;;;54.10;21.30;;;;;;;-2.35;84.40;100036.98;98065;1175;85673;-64
2021/03/22 01:20:00;;;;;;;40.87;16.43;;;;;;;-2.35;83.61;100036.98;98085;1175;75906;-64
2021/03/22 01:22:06;;;;;;;100.03;46.83;;;;;;;-2.35;83.79;100047.56;98046;1175;90742;-63
2021/03/22 01:24:15;;;;;;;71.20;35.00;;;;;;;-2.38;83.94;100051.29;98071;1173;83108;-63
2021/03/22 01:26:25;;;;;;;60.00;27.17;;;;;;;-2.37;84.38;100049.49;98049;1175;69258;-62
2021/03/22 01:28:30;;;;;;;77.20;34.85;;;;;;;-2.36;84.51;100046.72;98067;1171;87195;-61
2021/03/22 01:30:42;;;;;;;91.13;40.60;;;;;;;-2.35;84.53;100047.56;98117;1171;74711;-62
2021/03/22 01:32:51;;;;;;;83.10;36.20;;;;;;;-2.36;83.92;100052.01;98092;1175;89235;-63
2021/03/22 01:34:56;;;;;;;67.03;31.23;;;;;;;-2.41;84.19;100047.08;98081;1170;82375;-63
2021/03/22 01:37:03;;;;;;;60.95;28.70;;;;;;;-2.41;84.42;100055.01;98078;1169;69256;-62
2021/03/22 01:39:15;;;;;;;56.10;25.57;;;;;;;-2.41;83.83;100055.01;98087;1174;85358;-62
2021/03/22 01:42:01;;;;;;;34.95;19.05;;;;;;;-2.41;83.80;100060.30;98066;1173;75158;-61
2021/03/22 01:44:23;;;;;;;29.57;15.20;;;;;;;-2.39;83.75;100057.56;98011;1175;89181;-61
2021/03/22 01:46:36;;;;;;;34.70;18.20;;;;;;;-2.42;83.95;100055.95;98068;1170;82172;-62
2021/03/22 01:48:45;;;;;;;30.05;16.20;;;;;;;-2.42;84.19;100057.78;98069;1173;69123;-61
2021/03/22 01:50:53;;;;;;;37.30;19.65;;;;;;;-2.40;84.17;100061.15;98055;1174;86530;-62
2021/03/22 01:53:01;;;;;;;28.10;14.77;;;;;;;-2.37;84.40;100060.08;98126;1174;75103;-60
2021/03/22 01:55:12;;;;;;;28.43;13.77;;;;;;;-2.40;83.81;100056.70;98050;1174;90632;-62
2021/03/22 01:57:32;;;;;;;45.80;22.80;;;;;;;-2.39;84.30;100058.38;98055;1175;82433;-60
2021/03/22 01:59:37;;;;;;;31.95;15.80;;;;;;;-2.42;84.16;100061.25;98089;1171;69165;-62
2021/03/22 02:01:51;;;;;;;32.80;17.15;;;;;;;-2.41;84.05;100062.09;98059;1171;87787;-62
2021/03/22 02:03:57;;;;;;;32.70;18.25;;;;;;;-2.44;83.77;100062.33;98086;1173;74492;-62
2021/03/22 02:06:03;;;;;;;22.37;11.40;;;;;;;-2.42;83.81;100063.08;98067;1175;88352;-63
2021/03/22 02:08:19;;;;;;;21.65;10.85;;;;;;;-2.47;84.05;100066.05;98070;1170;81436;-63
2021/03/22 02:10:24;;;;;;;22.25;10.85;;;;;;;-2.49;83.87;100060.03;98092;1171;69135;-63
2021/03/22 02:12:30;;;;;;;19.80;9.70;;;;;;;-2.51;83.89;100059.31;98079;1170;86785;-63
2021/03/22 02:14:36;;;;;;;21.80;11.50;;;;;;;-2.53;84.06;100063.03;98072;1175;75957;-63
2021/03/22 02:17:09;;;;;;;23.20;9.30;;;;;;;-2.56;84.17;100066.75;98059;1171;89176;-61
2021/03/22 02:20:10;;;;;;;21.90;11.40;;;;;;;-2.58;83.73;100065.19;98079;1170;82591;-62
2021/03/22 02:22:48;;;;;;;17.17;10.10;;;;;;;-2.58;84.06;100073.94;98077;1175;69123;-61
2021/03/22 02:25:10;;;;;;;17.75;8.30;;;;;;;-2.63;83.97;100068.16;98049;1175;87533;-61
2021/03/22 02:28:04;;;;;;;14.70;8.30;;;;;;;-2.65;83.76;100070.08;98080;1174;77388;-62
2021/03/22 02:30:44;;;;;;;16.00;8.70;;;;;;;-2.66;83.66;100076.31;98073;1175;88423;-63
2021/03/22 02:33:45;;;;;;;12.55;7.25;;;;;;;-2.71;83.90;100077.60;97937;1175;83646;-62
2021/03/22 02:36:02;;;;;;;14.85;7.20;;;;;;;-2.71;84.04;100086.38;98065;1173;69132;-62
2021/03/22 02:38:16;;;;;;;15.00;7.80;;;;;;;-2.73;83.58;100075.09;98078;1175;85605;-62
2021/03/22 02:40:33;;;;;;;17.35;8.50;;;;;;;-2.75;84.00;100081.45;98064;1175;75029;-62
2021/03/22 02:42:45;;;;;;;17.30;9.20;;;;;;;-2.78;83.93;100081.67;98056;1175;89930;-61
2021/03/22 02:44:50;;;;;;;14.87;8.20;;;;;;;-2.78;84.10;100086.95;98052;1174;82881;-61
2021/03/22 02:46:59;;;;;;;15.85;8.15;;;;;;;-2.79;83.64;100086.11;98091;1171;69167;-60
2021/03/22 02:49:09;;;;;;;13.40;6.70;;;;;;;-2.81;84.09;100084.53;98071;1175;86708;-63
2021/03/22 02:51:29;;;;;;;12.60;6.20;;;;;;;-2.83;83.79;100087.27;98100;1174;75074;-64
2021/03/22 02:53:53;;;;;;;17.25;8.00;;;;;;;-2.84;83.74;100100.61;98079;1170;89782;-60
2021/03/22 02:56:13;;;;;;;14.30;6.25;;;;;;;-2.81;83.67;100106.53;98056;1175;81948;-61
2021/03/22 02:58:23;;;;;;;12.40;6.35;;;;;;;-2.83;83.88;100104.95;98083;1171;69222;-63
2021/03/22 03:00:33;;;;;;;12.50;6.40;;;;;;;-2.86;83.60;100105.17;98055;1175;86705;-64
2021/03/22 03:02:41;;;;;;;13.10;6.40;;;;;;;-2.87;83.82;100112.25;98072;1170;75412;-64
2021/03/22 03:04:47;;;;;;;12.03;5.87;;;;;;;-2.90;83.58;100109.83;98093;1174;89040;-64
2021/03/22 03:06:57;;;;;;;12.00;6.00;;;;;;;-2.91;83.83;100117.88;98052;1170;82697;-64
2021/03/22 03:09:04;;;;;;;16.60;6.70;;;;;;;-2.92;83.57;100124.11;98086;1174;69131;-64
2021/03/22 03:11:14;;;;;;;12.80;6.70;;;;;;;-2.97;83.67;100119.98;98058;1175;86441;-64
2021/03/22 03:13:19;;;;;;;13.97;7.77;;;;;;;-2.96;83.21;100115.55;97993;1171;74886;-62
2021/03/22 03:15:28;;;;;;;16.20;6.50;;;;;;;-2.99;83.92;100113.13;98075;1175;89952;-62
2021/03/22 03:17:35;;;;;;;17.10;8.10;;;;;;;-3.01;83.85;100123.83;98071;1174;82602;-64
2021/03/22 03:19:44;;;;;;;16.30;7.85;;;;;;;-3.03;83.62;100116.96;98046;1173;69141;-64
2021/03/22 03:21:51;;;;;;;18.87;7.90;;;;;;;-3.04;83.20;100125.83;98076;1175;86219;-65
2021/03/22 03:23:56;;;;;;;18.17;8.37;;;;;;;-3.03;83.87;100120.45;98073;1170;75196;-61
2021/03/22 03:26:01;;;;;;;21.00;7.60;;;;;;;-3.07;83.43;100129.54;98062;1174;89061;-63
2021/03/22 03:28:10;;;;;;;15.05;7.20;;;;;;;-3.06;83.80;100127.75;98086;1175;82257;-62
2021/03/22 03:30:22;;;;;;;13.55;7.60;;;;;;;-3.05;83.90;100127.63;98063;1175;69660;-63
2021/03/22 03:32:27;;;;;;;14.70;7.20;;;;;;;-3.06;83.80;100125.95;98072;1175;86653;-62
2021/03/22 03:34:33;;;;;;;17.17;6.87;;;;;;;-3.03;83.23;100125.73;98106;1175;76048;-62
2021/03/22 03:36:38;;;;;;;16.85;7.40;;;;;;;-3.00;83.69;100125.52;98042;1170;89557;-62
2021/03/22 03:38:43;;;;;;;15.00;5.70;;;;;;;-3.03;83.84;100133.66;98074;1175;83684;-60
2021/03/22 03:40:50;;;;;;;15.00;5.60;;;;;;;-3.06;83.25;100136.52;98051;1173;69538;-61
2021/03/22 03:42:55;;;;;;;12.80;5.90;;;;;;;-3.06;83.64;100139.17;98026;1175;86419;-62
2021/03/22 03:45:00;;;;;;;14.50;5.80;;;;;;;-3.05;83.56;100138.19;98082;1175;75352;-63
2021/03/22 03:47:08;;;;;;;16.15;6.35;;;;;;;-3.09;83.41;100141.17;98032;1175;90000;-64
2021/03/22 03:49:13;;;;;;;12.00;5.45;;;;;;;-3.13;83.59;100135.26;98046;1175;82275;-66
2021/03/22 03:51:18;;;;;;;12.85;6.70;;;;;;;-3.13;83.44;100142.36;98080;1175;69215;-65
2021/03/22 03:53:24;;;;;;;8.67;4.10;;;;;;;-3.11;83.99;100145.73;98096;1175;86233;-62
2021/03/22 03:55:32;;;;;;;9.90;4.85;;;;;;;-3.17;83.33;100140.88;98086;1175;74928;-61
2021/03/22 03:57:40;;;;;;;8.93;3.70;;;;;;;-3.21;83.52;100147.31;98096;1174;89134;-62
2021/03/22 03:59:49;;;;;;;10.13;4.37;;;;;;;-3.24;83.39;100152.84;98066;1175;83543;-62
2021/03/22 04:01:56;;;;;;;13.35;5.30;;;;;;;-3.24;83.27;100150.20;98081;1173;69258;-59
2021/03/22 04:04:03;;;;;;;13.10;5.10;;;;;;;-3.26;83.52;100149.44;98083;1175;86494;-62
2021/03/22 04:06:19;;;;;;;10.80;4.70;;;;;;;-3.26;83.55;100157.37;98081;1170;74519;-64
2021/03/22 04:08:25;;;;;;;10.10;4.20;;;;;;;-3.28;83.62;100152.20;98060;1170;89719;-64
2021/03/22 04:10:33;;;;;;;12.10;4.27;;;;;;;-3.30;83.24;100155.91;98037;1175;82334;-64
2021/03/22 04:12:38;;;;;;;12.33;4.77;;;;;;;-3.29;83.21;100158.42;98053;1171;69129;-65
2021/03/22 04:14:43;;;;;;;9.75;4.65;;;;;;;-3.36;83.59;100157.19;98048;1175;87280;-65
2021/03/22 04:16:50;;;;;;;11.97;4.30;;;;;;;-3.35;83.27;100152.75;98074;1175;77344;-65
2021/03/22 04:19:00;;;;;;;10.25;4.90;;;;;;;-3.35;82.95;100161.49;98064;1174;90462;-64
2021/03/22 04:21:08;;;;;;;13.45;4.85;;;;;;;-3.34;83.58;100154.42;98056;1169;83884;-65
2021/03/22 04:23:13;;;;;;;10.90;4.90;;;;;;;-3.34;83.02;100160.55;98104;1175;69722;-66
2021/03/22 04:25:18;;;;;;;12.50;6.40;;;;;;;-3.33;83.61;100151.69;98057;1174;87227;-64
2021/03/22 04:27:24;;;;;;;17.80;7.20;;;;;;;-3.28;83.28;100157.48;98106;1170;74930;-64
2021/03/22 04:29:32;;;;;;;17.15;6.60;;;;;;;-3.22;83.35;100158.86;98078;1175;90420;-64
2021/03/22 04:31:38;;;;;;;15.80;6.90;;;;;;;-3.16;83.43;100161.06;98065;1175;82648;-64
2021/03/22 04:33:44;;;;;;;17.63;5.97;;;;;;;-3.15;83.63;100162.73;98089;1171;69129;-64
2021/03/22 04:35:49;;;;;;;14.50;6.10;;;;;;;-3.13;83.48;100161.67;98092;1169;86505;-64
2021/03/22 04:37:58;;;;;;;17.80;7.77;;;;;;;-3.12;83.26;100160.73;98083;1175;76151;-65
2021/03/22 04:40:05;;;;;;;13.30;6.00;;;;;;;-3.08;83.29;100164.83;98068;1175;90258;-64
2021/03/22 04:42:12;;;;;;;13.85;5.60;;;;;;;-3.02;83.02;100158.27;98092;1170;81703;-65
2021/03/22 04:44:17;;;;;;;13.40;6.00;;;;;;;-3.00;83.40;100157.23;98094;1175;69139;-63
2021/03/22 04:46:22;;;;;;;12.65;5.15;;;;;;;-2.99;83.09;100158.89;98033;1175;86781;-64
2021/03/22 04:48:28;;;;;;;11.95;5.60;;;;;;;-2.91;82.87;100162.80;97995;1175;75958;-64
2021/03/22 04:50:33;;;;;;;13.80;5.90;;;;;;;-2.85;83.00;100159.70;98068;1170;89721;-64
2021/03/22 04:52:38;;;;;;;12.20;6.10;;;;;;;-2.81;83.27;100169.11;98045;1170;83858;-66
2021/03/22 04:54:46;;;;;;;13.93;5.90;;;;;;;-2.78;83.41;100158.31;98056;1172;68281;-69
2021/03/22 04:56:51;;;;;;;12.43;5.60;;;;;;;-2.72;83.09;100161.34;98089;1171;86806;-64
2021/03/22 04:58:56;;;;;;;12.77;6.33;;;;;;;-2.67;83.01;100164.52;98077;1170;75325;-65
2021/03/22 05:01:02;;;;;;;14.05;6.80;;;;;;;-2.59;83.32;100163.95;98056;1169;89484;-64
2021/03/22 05:03:10;;;;;;;13.00;5.40;;;;;;;-2.54;83.59;100167.10;98063;1175;82248;-64
2021/03/22 05:05:16;;;;;;;12.35;5.50;;;;;;;-2.46;83.49;100162.09;98072;1175;69206;-63
2021/03/22 05:07:21;;;;;;;13.20;6.40;;;;;;;-2.39;83.14;100163.34;98060;1170;86685;-64
2021/03/22 05:09:27;;;;;;;17.00;7.25;;;;;;;-2.32;83.64;100161.92;98072;1175;76279;-64
2021/03/22 05:11:32;;;;;;;13.50;6.10;;;;;;;-2.28;83.15;100166.02;98043;1175;89996;-64
2021/03/22 05:13:37;;;;;;;14.50;6.60;;;;;;;-2.18;83.34;100159.10;98024;1175;82867;-64
2021/03/22 05:15:43;;;;;;;14.30;6.90;;;;;;;-2.10;83.43;100159.37;98073;1175;69145;-63
2021/03/22 05:17:48;;;;;;;15.70;7.30;;;;;;;-1.96;83.48;100160.97;98085;1170;85229;-65
2021/03/22 05:19:54;;;;;;;15.80;7.65;;;;;;;-1.87;83.86;100161.10;98089;1175;76034;-65
2021/03/22 05:22:01;;;;;;;18.60;8.60;;;;;;;-1.82;83.73;100161.63;98067;1175;90118;-65
2021/03/22 05:24:08;;;;;;;16.20;8.10;;;;;;;-1.80;83.26;100157.05;98066;1175;83140;-65
2021/03/22 05:26:13;;;;;;;18.53;7.87;;;;;;;-1.73;83.62;100156.59;98083;1170;69148;-65
2021/03/22 05:28:20;;;;;;;14.85;7.55;;;;;;;-1.70;83.30;100161.65;98088;1169;86759;-62
2021/03/22 05:30:30;;;;;;;19.10;8.00;;;;;;;-1.68;83.34;100154.42;98080;1173;75089;-63
2021/03/22 05:32:38;;;;;;;16.30;8.10;;;;;;;-1.59;83.98;100161.67;98083;1175;88969;-63
2021/03/22 05:34:43;;;;;;;13.35;7.75;;;;;;;-1.48;83.48;100159.00;98067;1174;82241;-66
2021/03/22 05:36:49;;;;;;;16.33;9.07;;;;;;;-1.36;83.46;100166.01;98054;1175;69119;-66
2021/03/22 05:38:54;;;;;;;16.60;7.60;;;;;;;-1.21;83.63;100172.77;98068;1171;87018;-64
2021/03/22 05:41:05;;;;;;;14.20;7.90;;;;;;;-1.11;83.98;100170.23;98066;1173;76142;-66
2021/03/22 05:43:59;;;;;;;16.75;7.75;;;;;;;-1.00;84.21;100178.17;98037;1175;89835;-66
2021/03/22 05:46:14;;;;;;;15.27;8.03;;;;;;;-0.92;83.92;100181.91;98046;1174;82282;-65
2021/03/22 05:48:52;;;;;;;16.90;8.25;;;;;;;-0.88;83.78;100180.68;98064;1175;69264;-65
2021/03/22 05:51:44;;;;;;;17.60;8.50;;;;;;;-0.83;83.72;100185.64;98018;1174;87671;-65
2021/03/22 05:53:59;;;;;;;19.50;9.03;;;;;;;-0.77;83.92;100188.63;98038;1175;75292;-65
2021/03/22 05:56:12;;;;;;;16.73;8.63;;;;;;;-0.67;83.70;100192.25;98058;1175;89939;-64
2021/03/22 05:58:33;;;;;;;13.80;7.80;;;;;;;-0.63;83.92;100196.32;98090;1173;83147;-64
2021/03/22 06:00:54;;;;;;;16.10;8.00;;;;;;;-0.52;83.42;100200.76;98048;1174;69263;-65
2021/03/22 06:03:08;;;;;;;15.83;7.73;;;;;;;-0.45;83.36;100203.77;98050;1174;87813;-63
2021/03/22 06:05:28;;;;;;;;;;;;;;;-0.34;83.44;100209.05;98109;1174;75226;-64
2021/03/22 06:07:41;;;;;;;16.25;8.30;;;;;;;-0.24;83.39;100217.94;98064;1171;88695;-66
2021/03/22 06:09:55;;;;;;;15.80;7.60;;;;;;;-0.15;83.33;100214.54;98064;1174;81639;-66
2021/03/22 06:12:09;;;;;;;15.95;7.80;;;;;;;-0.02;83.83;100208.09;98078;1171;69125;-66
2021/03/22 06:14:25;;;;;;;18.30;8.57;;;;;;;0.10;83.50;100211.55;98068;1174;85454;-65
2021/03/22 06:16:37;;;;;;;13.10;7.00;;;;;;;0.23;84.04;100214.86;98077;1174;74740;-67
2021/03/22 06:18:58;;;;;;;14.85;8.25;;;;;;;0.33;83.85;100213.11;98092;1171;89014;-64
2021/03/22 06:21:16;;;;;;;14.10;7.85;;;;;;;0.50;83.93;100217.00;98045;1173;82127;-63
2021/03/22 06:23:36;;;;;;;17.30;8.40;;;;;;;0.55;83.69;100226.27;98051;1175;69267;-67
2021/03/22 06:25:41;;;;;;;17.85;8.55;;;;;;;0.70;83.66;100212.66;98070;1175;85547;-66
2021/03/22 06:27:53;;;;;;;15.15;8.30;;;;;;;0.82;83.63;100223.09;98103;1171;75068;-64
2021/03/22 06:29:58;;;;;;;15.25;8.25;;;;;;;0.90;83.76;100222.43;98038;1175;89464;-65
2021/03/22 06:32:14;;;;;;;15.20;8.05;;;;;;;1.13;83.52;100219.45;98080;1171;83186;-63
2021/03/22 06:34:34;;;;;;;13.95;7.50;;;;;;;1.39;83.26;100222.50;98038;1175;69184;-65
2021/03/22 06:36:39;;;;;;;16.95;8.25;;;;;;;1.59;82.93;100229.53;98028;1175;87124;-63
2021/03/22 06:38:47;;;;;;;14.55;7.45;;;;;;;1.77;83.07;100235.05;98075;1173;74778;-64
2021/03/22 06:40:51;;;;;;;;;;;;;;;1.81;83.16;100232.97;98054;1175;89335;-64
2021/03/22 06:43:11;;;;;;;70.00;30.93;;;;;;;1.95;82.91;100240.56;98015;1170;81777;-65
2021/03/22 06:45:35;;;;;;;37.83;18.30;;;;;;;2.05;82.92;100231.59;98073;1171;69200;-65
2021/03/22 06:47:40;;;;;;;30.80;16.90;;;;;;;2.05;82.55;100244.06;98067;1175;86309;-63
2021/03/22 06:49:49;;;;;;;23.10;14.63;;;;;;;2.10;82.80;100249.81;98057;1174;75183;-63
2021/03/22 06:52:09;;;;;;;19.10;9.35;;;;;;;2.26;82.73;100247.44;98061;1173;89038;-63
2021/03/22 06:54:33;;;;;;;15.90;8.50;;;;;;;2.44;82.67;100248.43;98019;1170;82327;-63
2021/03/22 06:56:39;;;;;;;16.05;8.95;;;;;;;2.64;82.38;100250.08;98044;1175;69231;-62
2021/03/22 06:58:47;;;;;;;22.07;12.73;;;;;;;2.70;82.10;100254.84;98018;1175;86921;-63
2021/03/22 07:00:52;;;;;;;20.85;10.20;;;;;;;2.66;82.02;100241.95;98029;1175;75012;-63
2021/03/22 07:03:03;;;;;;;19.65;11.05;;;;;;;2.69;82.33;100253.16;98052;1174;89661;-66
2021/03/22 07:05:33;;;;;;;14.25;8.60;;;;;;;2.74;81.69;100245.59;98048;1175;84034;-68
2021/03/22 07:07:54;;;;;;;15.70;6.40;;;;;;;2.88;81.44;100257.64;98059;1175;69149;-65
2021/03/22 07:10:10;;;;;;;13.55;7.85;;;;;;;3.01;81.76;100251.97;98050;1170;86377;-64
2021/03/22 07:12:39;;;;;;;13.40;7.20;;;;;;;3.17;81.64;100258.39;98077;1170;74903;-63
2021/03/22 07:14:44;;;;;;;15.95;7.40;;;;;;;3.40;81.42;100261.54;98078;1175;90032;-63
2021/03/22 07:17:06;;;;;;;13.57;6.40;;;;;;;3.53;81.17;100262.88;98078;1170;83118;-64
2021/03/22 07:19:20;;;;;;;12.90;6.63;;;;;;;3.62;80.74;100262.98;98065;1170;69148;-64
2021/03/22 07:21:28;;;;;;;12.20;6.40;;;;;;;3.84;80.82;100254.56;98042;1175;86806;-62
2021/03/22 07:24:09;;;;;;;13.53;6.70;;;;;;;4.22;80.61;100267.67;98049;1174;75748;-62
2021/03/22 07:26:28;;;;;;;12.30;6.70;;;;;;;4.58;79.90;100268.51;98069;1171;89212;-64
2021/03/22 07:28:43;;;;;;;13.50;7.00;;;;;;;4.61;79.77;100263.70;98032;1175;83440;-66
2021/03/22 07:31:00;;;;;;;16.13;8.23;;;;;;;4.78;79.65;100272.66;98063;1175;68099;-65
2021/03/22 07:33:30;;;;;;;14.70;7.80;;;;;;;5.05;79.14;100272.56;98047;1174;87924;-65
2021/03/22 07:36:14;;;;;;;15.90;8.30;;;;;;;5.88;79.90;100269.14;98069;1171;74539;-64
2021/03/22 07:39:09;;;;;;;15.05;7.05;;;;;;;7.12;78.88;100273.45;98026;1175;90210;-66
2021/03/22 07:41:25;;;;;;;;;;;;;;;7.59;77.71;100271.66;97890;1177;82412;-62
2021/03/22 07:43:49;;;;;;;15.15;8.50;;;;;;;7.51;76.87;100278.91;98058;1175;69250;-65
2021/03/22 07:46:07;;;;;;;13.13;7.60;;;;;;;7.37;76.33;100284.99;98039;1175;87006;-65
2021/03/22 07:48:47;;;;;;;14.80;8.37;;;;;;;6.97;75.46;100286.75;98087;1173;74273;-67
2021/03/22 07:51:00;;;;;;;16.93;9.40;;;;;;;6.05;74.97;100294.17;98059;1173;89845;-65
2021/03/22 07:53:18;;;;;;;13.00;8.80;;;;;;;5.62;74.81;100296.98;98049;1175;82543;-65
2021/03/22 07:55:54;;;;;;;13.05;7.20;;;;;;;5.09;74.55;100308.72;98079;1175;66882;-65
2021/03/22 07:58:11;;;;;;;12.53;6.90;;;;;;;4.40;74.63;100318.47;98021;1174;87265;-65
2021/03/22 08:00:26;;;;;;;14.55;7.80;;;;;;;3.77;74.68;100310.41;98062;1170;75292;-63
2021/03/22 08:03:04;;;;;;;11.23;6.20;;;;;;;3.46;75.25;100317.03;98073;1171;89999;-66
2021/03/22 08:05:22;;;;;;;13.13;6.93;;;;;;;3.18;75.79;100320.63;98052;1174;82039;-65
2021/03/22 08:08:03;;;;;;;13.00;7.25;;;;;;;3.12;75.95;100329.20;98068;1174;69126;-65
2021/03/22 08:10:35;;;;;;;13.30;7.20;;;;;;;3.04;76.23;100326.41;98050;1175;86941;-65
2021/03/22 08:12:48;;;;;;;15.27;8.40;;;;;;;2.98;76.13;100322.48;98100;1173;74386;-66
2021/03/22 08:15:01;;;;;;;13.00;7.35;;;;;;;3.01;76.78;100321.34;98058;1173;89480;-65
2021/03/22 08:17:30;;;;;;;16.50;8.10;;;;;;;3.90;77.79;100323.45;98081;1173;82076;-64
2021/03/22 08:19:43;;;;;;;16.60;8.00;;;;;;;5.92;77.67;100309.88;98045;1175;69206;-64
2021/03/22 08:22:03;;;;;;;13.50;7.95;;;;;;;7.85;76.51;100305.53;98083;1175;86343;-64
2021/03/22 08:24:20;;;;;;;13.57;8.37;;;;;;;9.29;74.51;100294.78;98082;1170;75006;-64
2021/03/22 08:26:33;;;;;;;12.60;6.45;;;;;;;10.55;71.62;100293.58;98084;1174;88503;-66
2021/03/22 08:28:46;;;;;;;11.40;6.60;;;;;;;11.18;71.07;100293.55;98045;1174;82965;-66
2021/03/22 08:31:07;;;;;;;12.20;6.55;;;;;;;12.77;67.48;100305.00;98067;1174;69154;-64
2021/03/22 08:33:23;;;;;;;12.00;7.35;;;;;;;14.04;65.13;100294.70;98055;1175;87324;-64
2021/03/22 08:35:40;;;;;;;12.25;8.25;;;;;;;14.69;65.11;100301.77;98090;1173;75246;-63
2021/03/22 08:37:55;;;;;;;10.10;6.60;;;;;;;14.75;59.68;100290.83;98074;1170;89437;-64
2021/03/22 08:40:06;;;;;;;8.60;5.60;;;;;;;13.37;57.35;100300.50;98033;1173;82117;-64
2021/03/22 08:42:19;;;;;;;12.80;7.00;;;;;;;11.73;59.41;100300.00;98080;1173;69258;-65
2021/03/22 08:44:36;;;;;;;17.50;14.80;;;;;;;10.43;58.67;100314.03;98053;1169;86182;-64
2021/03/22 08:46:52;;;;;;;13.47;9.93;;;;;;;9.36;60.30;100318.16;98062;1175;75096;-64
2021/03/22 08:49:00;;;;;;;19.90;15.80;;;;;;;8.68;61.42;100317.39;97978;1170;89211;-65
2021/03/22 08:51:17;;;;;;;21.17;14.50;;;;;;;7.96;61.30;100324.81;98049;1175;82799;-65
2021/03/22 08:53:33;;;;;;;15.43;13.50;;;;;;;7.28;62.55;100324.47;98052;1175;69254;-66
2021/03/22 08:55:47;;;;;;;14.80;10.30;;;;;;;6.84;62.94;100329.36;98066;1173;85985;-66
2021/03/22 08:58:01;;;;;;;13.75;8.85;;;;;;;6.52;63.71;100323.95;98081;1175;76111;-64
2021/03/22 09:00:37;;;;;;;13.45;7.85;;;;;;;6.35;64.62;100323.08;98068;1175;89016;-65
2021/03/22 09:02:56;;;;;;;10.60;7.20;;;;;;;6.08;64.65;100323.34;98044;1175;82395;-64
2021/03/22 09:05:21;;;;;;;11.43;6.60;;;;;;;5.85;64.94;100320.40;98093;1173;69614;-64
2021/03/22 09:07:33;;;;;;;10.97;6.73;;;;;;;5.70;64.80;100318.46;98064;1174;86663;-64
2021/03/22 09:09:45;;;;;;;12.93;7.47;;;;;;;5.93;66.01;100316.94;98119;1174;74851;-64
2021/03/22 09:11:52;;;;;;;10.00;6.50;;;;;;;7.41;67.69;100310.53;98071;1175;90618;-64
2021/03/22 09:14:00;;;;;;;11.03;7.23;;;;;;;8.34;66.29;100309.69;98037;1174;81833;-64
2021/03/22 09:16:41;;;;;;;12.85;8.10;;;;;;;9.40;64.85;100307.81;98078;1174;69168;-63
2021/03/22 09:19:41;;;;;;;12.10;6.30;;;;;;;10.90;63.89;100306.22;98043;1174;86580;-63
2021/03/22 09:22:11;;;;;;;10.95;7.45;;;;;;;12.12;60.95;100300.22;98058;1175;75458;-63
2021/03/22 09:24:50;;;;;;;8.20;5.30;;;;;;;13.43;60.12;100302.38;98056;1174;89820;-64
2021/03/22 09:27:01;;;;;;;7.60;4.83;;;;;;;14.01;57.84;100295.97;98024;1175;82009;-64
2021/03/22 09:29:40;;;;;;;9.10;6.20;;;;;;;14.49;57.53;100298.31;98065;1175;69218;-66
2021/03/22 09:31:50;;;;;;;9.15;6.55;;;;;;;14.53;53.14;100296.84;98043;1174;85560;-66
2021/03/22 09:34:03;;;;;;;6.40;4.10;;;;;;;13.74;52.80;100304.40;98049;1173;76188;-64
2021/03/22 09:36:35;;;;;;;5.40;3.53;;;;;;;13.08;53.76;100303.61;98065;1170;88558;-64
2021/03/22 09:38:49;;;;;;;6.60;4.85;;;;;;;13.70;51.58;100295.86;98034;1174;81479;-65
2021/03/22 09:41:02;;;;;;;7.70;5.20;;;;;;;13.63;52.30;100294.19;98087;1175;69232;-65
2021/03/22 09:43:39;;;;;;;7.80;5.20;;;;;;;12.42;51.43;100301.58;98025;1175;85567;-65
2021/03/22 09:46:26;;;;;;;6.50;4.40;;;;;;;11.83;52.94;100295.09;98081;1175;74976;-66
2021/03/22 09:48:35;;;;;;;6.97;4.17;;;;;;;11.22;53.65;100302.13;98043;1170;89850;-65
2021/03/22 09:50:49;;;;;;;5.80;3.90;;;;;;;10.77;54.14;100306.07;98063;1174;82770;-65
2021/03/22 09:53:18;;;;;;;5.37;3.03;;;;;;;10.68;54.02;100307.25;98072;1175;69283;-64
2021/03/22 09:56:01;;;;;;;4.60;2.70;;;;;;;9.81;54.62;100311.75;98045;1174;85690;-65
2021/03/22 09:58:28;;;;;;;6.10;3.75;;;;;;;9.78;54.68;100312.12;98106;1173;75137;-64
2021/03/22 10:00:59;;;;;;;6.97;4.67;;;;;;;9.80;56.20;100306.55;98217;1158;89044;-64
2021/03/22 10:04:14;;;;;;;7.50;3.20;;;;;;;10.03;55.71;100308.11;98050;1174;81567;-66
2021/03/22 10:06:56;;;;;;;5.20;3.60;;;;;;;9.76;56.34;100306.08;98046;1175;69094;-65
2021/03/22 10:09:02;;;;;;;6.85;3.40;;;;;;;9.82;56.17;100304.50;98067;1175;85226;-64
2021/03/22 10:11:22;;;;;;;6.63;3.00;;;;;;;9.58;56.39;100293.99;98094;1173;75780;-64
2021/03/22 10:13:33;;;;;;;7.10;3.50;;;;;;;9.64;56.26;100304.05;98103;1175;90074;-63
2021/03/22 10:15:52;;;;;;;6.55;3.50;;;;;;;9.50;56.50;100303.83;98029;1175;82925;-65
2021/03/22 10:18:11;;;;;;;7.10;3.97;;;;;;;9.44;56.35;100307.29;98085;1171;69158;-67
2021/03/22 10:20:29;;;;;;;7.50;4.10;;;;;;;9.35;56.72;100311.08;98076;1173;85584;-64